createdAt,value
2022-10-17T00:01:24.014Z,99.90
2022-10-17T00:03:50.687Z,99.90
2022-10-17T00:06:17.556Z,99.90
2022-10-17T00:08:45.055Z,99.90
2022-10-17T00:11:20.715Z,99.90
2022-10-17T00:13:52.952Z,99.90
2022-10-17T00:16:25.292Z,99.90
2022-10-17T00:18:52.029Z,99.90
2022-10-17T00:21:23.320Z,99.90
2022-10-17T00:23:51.609Z,99.90
2022-10-17T00:26:20.705Z,99.90
2022-10-17T00:28:51.614Z,99.90
2022-10-17T00:31:22.517Z,99.90
2022-10-17T00:33:50.562Z,99.90
2022-10-17T00:36:20.343Z,99.90
2022-10-17T00:38:49.866Z,99.90
2022-10-17T00:41:20.807Z,99.90
2022-10-17T00:43:59.980Z,99.90
2022-10-17T00:46:30.218Z,99.90
2022-10-17T00:48:59.878Z,99.90
2022-10-17T00:51:37.601Z,99.90
2022-10-17T00:54:08.906Z,99.90
2022-10-17T00:56:36.142Z,99.90
2022-10-17T00:59:02.963Z,99.90
2022-10-17T01:01:30.078Z,99.90
2022-10-17T01:03:59.747Z,99.90
2022-10-17T01:06:26.533Z,99.90
2022-10-17T01:08:53.453Z,99.90
2022-10-17T01:11:41.953Z,99.90
2022-10-17T01:14:40.544Z,99.90
2022-10-17T01:17:40.282Z,99.90
2022-10-17T01:20:46.012Z,99.90
2022-10-17T01:23:42.113Z,99.90
2022-10-17T01:26:41.627Z,99.90
2022-10-17T01:29:26.970Z,99.90
2022-10-17T01:32:18.686Z,99.90
2022-10-17T01:35:01.693Z,99.90
2022-10-17T01:37:45.746Z,99.90
2022-10-17T01:40:18.011Z,99.90
2022-10-17T01:43:10.784Z,99.90
2022-10-17T01:46:11.654Z,99.90
2022-10-17T01:48:46.840Z,99.90
2022-10-17T01:51:48.757Z,99.90
2022-10-17T01:54:20.035Z,99.90
2022-10-17T01:56:49.069Z,99.90
2022-10-17T01:59:41.717Z,99.90
2022-10-17T02:02:09.584Z,99.90
2022-10-17T02:04:36.453Z,99.90
2022-10-17T02:07:09.572Z,99.90
2022-10-17T02:09:37.721Z,99.90
2022-10-17T02:12:13.983Z,99.90
2022-10-17T02:15:20.043Z,99.90
2022-10-17T02:18:02.045Z,99.90
2022-10-17T02:20:43.031Z,99.90
2022-10-17T02:23:23.959Z,99.90
2022-10-17T02:26:20.988Z,99.90
2022-10-17T02:29:03.992Z,99.90
2022-10-17T02:32:09.343Z,99.90
2022-10-17T02:34:49.592Z,99.90
2022-10-17T02:37:21.903Z,99.90
2022-10-17T02:39:54.936Z,99.90
2022-10-17T02:42:23.967Z,99.90
2022-10-17T02:44:51.637Z,99.90
2022-10-17T02:47:35.951Z,99.90
2022-10-17T02:50:04.564Z,99.90
2022-10-17T02:53:04.025Z,99.90
2022-10-17T02:56:00.041Z,99.90
2022-10-17T02:58:35.286Z,99.90
2022-10-17T03:01:04.319Z,99.90
2022-10-17T03:03:33.009Z,99.90
2022-10-17T03:06:05.833Z,99.90
2022-10-17T03:08:32.504Z,99.90
2022-10-17T03:11:00.194Z,99.90
2022-10-17T03:13:30.416Z,99.90
2022-10-17T03:16:02.075Z,99.90
2022-10-17T03:18:30.986Z,99.90
2022-10-17T03:21:00.502Z,99.90
2022-10-17T03:23:28.040Z,99.90
2022-10-17T03:25:55.001Z,99.90
2022-10-17T03:28:25.140Z,99.90
2022-10-17T03:30:52.929Z,99.90
2022-10-17T03:33:19.568Z,99.90
2022-10-17T03:38:21.706Z,99.90
2022-10-17T03:40:57.555Z,99.90
2022-10-17T03:43:26.473Z,99.90
2022-10-17T03:45:53.118Z,99.90
2022-10-17T03:48:26.938Z,99.90
2022-10-17T03:51:04.976Z,99.90
2022-10-17T03:53:34.099Z,99.90
2022-10-17T03:56:14.586Z,99.90
2022-10-17T03:58:43.481Z,99.90
2022-10-17T04:01:14.549Z,99.90
2022-10-17T04:03:42.369Z,99.90
2022-10-17T04:06:12.006Z,99.90
2022-10-17T04:08:41.816Z,99.90
2022-10-17T04:11:24.113Z,99.90
2022-10-17T04:14:00.307Z,99.90
2022-10-17T04:16:29.975Z,99.90
2022-10-17T04:19:00.934Z,99.90
2022-10-17T04:21:33.692Z,99.90
2022-10-17T04:24:05.152Z,99.90
2022-10-17T04:26:49.427Z,99.90
2022-10-17T04:29:16.390Z,99.90
2022-10-17T04:31:44.966Z,99.90
2022-10-17T04:34:18.119Z,99.90
2022-10-17T04:36:47.647Z,99.90
2022-10-17T04:39:18.478Z,99.90
2022-10-17T04:41:47.962Z,99.90
2022-10-17T04:44:15.313Z,99.90
2022-10-17T04:46:50.024Z,99.90
2022-10-17T04:49:16.762Z,99.90
2022-10-17T04:51:46.639Z,99.90
2022-10-17T04:54:33.473Z,99.90
2022-10-17T04:57:11.868Z,99.90
2022-10-17T04:59:40.370Z,99.90
2022-10-17T05:02:23.008Z,99.90
2022-10-17T05:04:53.411Z,99.90
2022-10-17T05:07:21.068Z,99.90
2022-10-17T05:10:10.442Z,99.90
2022-10-17T05:12:38.483Z,99.90
2022-10-17T05:15:05.832Z,99.90
2022-10-17T05:17:34.248Z,99.90
2022-10-17T05:20:03.099Z,99.90
2022-10-17T05:22:38.319Z,99.90
2022-10-17T05:25:10.131Z,99.90
2022-10-17T05:27:37.459Z,99.90
2022-10-17T05:30:09.405Z,99.90
2022-10-17T05:32:37.354Z,99.90
2022-10-17T05:35:04.533Z,99.90
2022-10-17T05:37:34.245Z,99.90
2022-10-17T05:40:03.501Z,99.90
2022-10-17T05:42:31.363Z,99.90
2022-10-17T05:45:01.379Z,99.90
2022-10-17T05:47:28.420Z,99.90
2022-10-17T05:49:55.288Z,99.90
2022-10-17T05:52:29.207Z,99.90
2022-10-17T05:55:08.951Z,99.90
2022-10-17T05:57:35.700Z,99.90
2022-10-17T06:00:05.947Z,99.90
2022-10-17T06:02:42.764Z,99.90
2022-10-17T06:05:12.154Z,99.90
2022-10-17T06:07:41.587Z,99.90
2022-10-17T06:10:12.173Z,99.90
2022-10-17T06:12:39.953Z,99.90
2022-10-17T06:15:07.560Z,99.90
2022-10-17T06:17:35.662Z,99.90
2022-10-17T06:20:05.477Z,99.90
2022-10-17T06:22:34.869Z,99.90
2022-10-17T06:25:05.499Z,99.90
2022-10-17T06:27:34.327Z,99.90
2022-10-17T06:30:01.546Z,99.90
2022-10-17T06:32:32.392Z,99.90
2022-10-17T06:34:59.746Z,99.90
2022-10-17T06:37:37.123Z,99.90
2022-10-17T06:40:09.695Z,99.90
2022-10-17T06:42:43.852Z,99.90
2022-10-17T06:45:24.773Z,99.90
2022-10-17T06:47:56.998Z,99.90
2022-10-17T06:50:43.747Z,99.90
2022-10-17T06:53:24.280Z,99.90
2022-10-17T06:56:16.408Z,99.90
2022-10-17T06:58:55.140Z,99.90
2022-10-17T07:01:31.177Z,99.90
2022-10-17T07:04:00.114Z,99.90
2022-10-17T07:06:29.382Z,99.90
2022-10-17T07:09:00.282Z,99.90
2022-10-17T07:11:26.947Z,99.90
2022-10-17T07:13:56.759Z,99.90
2022-10-17T07:16:23.589Z,99.90
2022-10-17T07:19:03.820Z,99.90
2022-10-17T07:24:22.623Z,99.90
2022-10-17T07:32:54.502Z,99.90
2022-10-17T07:35:25.277Z,99.90
2022-10-17T07:37:52.396Z,99.90
2022-10-17T07:40:23.405Z,99.90
2022-10-17T07:42:50.458Z,99.90
2022-10-17T07:45:20.089Z,99.90
2022-10-17T07:47:47.120Z,99.90
2022-10-17T07:50:18.803Z,99.90
2022-10-17T07:52:45.467Z,99.90
2022-10-17T07:55:12.372Z,99.90
2022-10-17T07:57:39.629Z,99.90
2022-10-17T08:00:09.196Z,99.90
2022-10-17T08:02:44.268Z,99.90
2022-10-17T08:05:10.933Z,99.90
2022-10-17T08:07:38.323Z,99.90
2022-10-17T08:10:05.576Z,99.90
2022-10-17T08:12:33.682Z,99.90
2022-10-17T08:15:01.145Z,99.90
2022-10-17T08:17:27.841Z,99.90
2022-10-17T08:19:56.735Z,99.90
2022-10-17T08:22:25.849Z,99.90
2022-10-17T08:24:52.486Z,99.90
2022-10-17T08:27:23.505Z,99.90
2022-10-17T08:29:53.536Z,99.90
2022-10-17T08:32:25.175Z,99.90
2022-10-17T08:34:54.834Z,99.90
2022-10-17T08:37:22.603Z,99.90
2022-10-17T08:39:49.296Z,99.90
2022-10-17T08:42:36.533Z,99.90
2022-10-17T08:45:15.231Z,99.90
2022-10-17T08:47:48.457Z,99.90
2022-10-17T08:50:34.409Z,99.90
2022-10-17T08:53:20.468Z,99.90
2022-10-17T08:55:50.369Z,99.90
2022-10-17T08:58:23.503Z,99.90
2022-10-17T09:01:19.174Z,99.90
2022-10-17T09:04:06.362Z,99.90
2022-10-17T09:06:38.995Z,99.90
2022-10-17T09:09:20.238Z,99.90
2022-10-17T09:12:19.699Z,99.90
2022-10-17T09:15:11.838Z,99.90
2022-10-17T09:17:52.698Z,99.90
2022-10-17T09:20:25.485Z,99.90
2022-10-17T09:23:01.388Z,99.90
2022-10-17T09:25:30.884Z,99.90
2022-10-17T09:28:10.096Z,99.90
2022-10-17T09:30:46.146Z,99.90
2022-10-17T09:33:34.735Z,99.90
2022-10-17T09:36:10.160Z,99.90
2022-10-17T09:39:10.676Z,99.90
2022-10-17T09:41:50.601Z,99.90
2022-10-17T09:44:29.960Z,99.90
2022-10-17T09:47:21.079Z,99.90
2022-10-17T09:49:49.529Z,99.90
2022-10-17T09:52:16.335Z,99.90
2022-10-17T09:54:50.647Z,99.90
2022-10-17T09:57:19.018Z,99.90
2022-10-17T10:00:01.134Z,99.90
2022-10-17T10:02:31.756Z,99.90
2022-10-17T10:05:07.380Z,99.90
2022-10-17T10:07:38.516Z,99.90
2022-10-17T10:10:27.650Z,99.90
2022-10-17T10:13:16.969Z,99.90
2022-10-17T10:15:48.906Z,99.90
2022-10-17T10:21:13.871Z,99.90
2022-10-17T10:23:44.727Z,99.90
2022-10-17T10:26:31.585Z,99.90
2022-10-17T10:29:19.401Z,99.90
2022-10-17T10:31:47.847Z,99.90
2022-10-17T10:34:27.400Z,99.90
2022-10-17T10:37:01.584Z,99.90
2022-10-17T10:39:34.050Z,99.90
2022-10-17T10:42:07.261Z,99.90
2022-10-17T10:44:37.194Z,99.90
2022-10-17T10:47:29.029Z,99.90
2022-10-17T10:50:21.519Z,99.90
2022-10-17T10:53:29.119Z,99.90
2022-10-17T10:56:07.513Z,99.90
2022-10-17T10:58:46.112Z,99.90
2022-10-17T11:01:26.933Z,99.90
2022-10-17T11:04:06.027Z,99.90
2022-10-17T11:06:37.073Z,99.90
2022-10-17T11:09:13.540Z,99.90
2022-10-17T11:12:13.578Z,99.90
2022-10-17T11:14:46.613Z,99.90
2022-10-17T11:17:29.458Z,99.90
2022-10-17T11:20:08.900Z,99.90
2022-10-17T11:22:50.849Z,99.90
2022-10-17T11:25:39.414Z,99.90
2022-10-17T11:28:32.305Z,99.90
2022-10-17T11:31:13.991Z,99.90
2022-10-17T11:34:00.266Z,99.90
2022-10-17T11:36:31.541Z,99.90
2022-10-17T11:39:18.416Z,99.90
2022-10-17T11:42:06.260Z,99.90
2022-10-17T11:44:39.668Z,99.90
2022-10-17T11:47:27.309Z,99.90
2022-10-17T11:53:00.121Z,99.90
2022-10-17T11:55:29.935Z,99.90
2022-10-17T11:58:21.414Z,99.90
2022-10-17T12:01:02.278Z,99.90
2022-10-17T12:03:38.229Z,99.90
2022-10-17T12:06:29.609Z,99.90
2022-10-17T12:09:18.360Z,99.90
2022-10-17T12:11:56.516Z,99.90
2022-10-17T12:14:45.170Z,99.90
2022-10-17T12:17:40.042Z,99.90
2022-10-17T12:20:29.651Z,99.90
2022-10-17T12:23:10.487Z,99.90
2022-10-17T12:26:03.280Z,99.90
2022-10-17T12:28:37.387Z,99.90
2022-10-17T12:31:12.972Z,99.90
2022-10-17T12:33:45.885Z,99.90
2022-10-17T12:36:21.637Z,99.90
2022-10-17T12:39:38.776Z,99.90
2022-10-17T12:42:29.255Z,99.90
2022-10-17T12:44:56.885Z,99.90
2022-10-17T12:47:39.737Z,99.90
2022-10-17T12:50:45.657Z,99.90
2022-10-17T12:53:19.480Z,99.90
2022-10-17T12:55:51.115Z,99.90
2022-10-17T12:58:17.829Z,99.90
2022-10-17T13:01:22.588Z,99.90
2022-10-17T13:03:49.036Z,99.70
2022-10-17T13:06:27.688Z,99.90
2022-10-17T13:09:03.938Z,99.80
2022-10-17T13:11:35.473Z,99.50
2022-10-17T13:14:18.582Z,98.40
2022-10-17T13:16:57.125Z,99.30
2022-10-17T13:19:29.403Z,99.90
2022-10-17T13:22:07.893Z,97.90
2022-10-17T13:24:39.648Z,97.80
2022-10-17T13:27:29.047Z,97.50
2022-10-17T13:30:01.312Z,98.20
2022-10-17T13:32:41.225Z,98.10
2022-10-17T13:35:11.961Z,98.20
2022-10-17T13:37:44.825Z,97.50
2022-10-17T13:40:44.242Z,96.20
2022-10-17T13:43:15.358Z,96.20
2022-10-17T13:45:55.600Z,97.40
2022-10-17T13:48:30.462Z,96.80
2022-10-17T13:51:02.761Z,96.40
2022-10-17T13:53:39.254Z,96.50
2022-10-17T13:56:30.150Z,96.60
2022-10-17T13:59:46.433Z,96.30
2022-10-17T14:02:21.916Z,96.40
2022-10-17T14:05:16.650Z,96.60
2022-10-17T14:10:41.545Z,95.80
2022-10-17T14:13:22.991Z,94.90
2022-10-17T14:15:55.127Z,95.70
2022-10-17T14:18:26.945Z,95.10
2022-10-17T14:21:33.999Z,95.30
2022-10-17T14:23:51.529Z,95.30
2022-10-17T14:26:23.005Z,94.10
2022-10-17T14:29:19.870Z,95.10
2022-10-17T14:34:46.541Z,94.10
2022-10-17T14:37:34.121Z,93.20
2022-10-17T14:40:04.423Z,93.40
2022-10-17T14:42:31.206Z,92.60
2022-10-17T14:45:07.988Z,94.00
2022-10-17T14:47:50.516Z,93.80
2022-10-17T14:53:29.396Z,94.50
2022-10-17T14:56:02.509Z,95.70
2022-10-17T14:58:33.399Z,95.20
2022-10-17T15:01:03.142Z,95.50
2022-10-17T15:03:30.660Z,95.60
2022-10-17T15:05:57.750Z,96.30
2022-10-17T15:08:32.153Z,97.20
2022-10-17T15:11:01.067Z,96.90
2022-10-17T15:13:33.538Z,97.20
2022-10-17T15:16:17.668Z,97.70
2022-10-17T15:18:47.852Z,98.90
2022-10-17T15:21:26.518Z,99.30
2022-10-17T15:24:33.327Z,98.80
2022-10-17T15:27:06.026Z,99.90
2022-10-17T15:29:34.153Z,99.90
2022-10-17T15:32:01.594Z,99.90
2022-10-17T15:34:28.390Z,99.90
2022-10-17T15:36:58.069Z,99.90
2022-10-17T15:39:28.650Z,99.90
2022-10-17T15:41:58.409Z,99.90
2022-10-17T15:44:28.193Z,99.90
2022-10-17T15:46:58.418Z,99.90
2022-10-17T15:49:25.078Z,99.90
2022-10-17T15:51:55.054Z,99.90
2022-10-17T15:54:22.639Z,99.90
2022-10-17T15:57:04.650Z,99.90
2022-10-17T15:59:36.801Z,99.90
2022-10-17T16:02:03.631Z,99.90
2022-10-17T16:04:30.160Z,99.90
2022-10-17T16:06:57.268Z,99.90
2022-10-17T16:09:23.977Z,99.90
2022-10-17T16:11:50.453Z,99.90
2022-10-17T16:14:17.502Z,99.90
2022-10-17T16:16:44.203Z,99.90
2022-10-17T16:19:18.329Z,99.90
2022-10-17T16:21:48.661Z,99.90
2022-10-17T16:24:16.998Z,99.90
2022-10-17T16:26:44.779Z,99.90
2022-10-17T16:29:11.266Z,99.90
2022-10-17T16:31:41.136Z,99.90
2022-10-17T16:34:13.129Z,99.90
2022-10-17T16:36:45.820Z,99.90
2022-10-17T16:42:14.205Z,99.90
2022-10-17T16:44:41.121Z,99.90
2022-10-17T16:47:12.453Z,99.90
2022-10-17T16:49:41.612Z,99.90
2022-10-17T16:52:11.291Z,99.90
2022-10-17T16:54:41.747Z,99.90
2022-10-17T16:57:08.314Z,99.90
2022-10-17T16:59:35.816Z,99.90
2022-10-17T17:02:03.444Z,99.90
2022-10-17T17:04:30.059Z,99.90
2022-10-17T17:06:56.672Z,99.90
2022-10-17T17:09:23.172Z,99.90
2022-10-17T17:11:49.658Z,99.90
2022-10-17T17:14:40.917Z,99.90
2022-10-17T17:17:53.382Z,99.90
2022-10-17T17:20:21.386Z,99.90
2022-10-17T17:22:51.583Z,99.90
2022-10-17T17:25:23.279Z,99.90
2022-10-17T17:27:50.973Z,99.90
2022-10-17T17:30:17.596Z,99.90
2022-10-17T17:32:44.310Z,99.90
2022-10-17T17:35:11.248Z,99.90
2022-10-17T17:37:41.295Z,99.90
2022-10-17T17:40:13.295Z,99.90
2022-10-17T17:42:41.689Z,99.90
2022-10-17T17:45:08.547Z,99.90
2022-10-17T17:47:41.710Z,99.90
2022-10-17T17:50:13.514Z,99.90
2022-10-17T17:55:41.483Z,99.90
2022-10-17T18:09:52.394Z,99.90
2022-10-17T18:21:31.712Z,99.90
2022-10-17T18:24:04.134Z,99.90
2022-10-17T18:26:32.824Z,99.90
2022-10-17T18:34:47.642Z,99.90
2022-10-17T18:43:37.558Z,99.90
2022-10-17T18:46:10.862Z,99.90
2022-10-17T18:57:49.235Z,99.90
2022-10-17T19:03:26.755Z,99.90
2022-10-17T19:06:19.425Z,99.90
2022-10-17T19:11:36.507Z,99.90
2022-10-17T19:31:17.916Z,99.90
2022-10-17T19:33:52.496Z,99.90
2022-10-17T19:36:20.109Z,99.90
2022-10-17T19:38:50.070Z,99.90
2022-10-17T19:41:18.490Z,99.90
2022-10-17T19:43:46.602Z,99.90
2022-10-17T19:46:14.297Z,99.90
2022-10-17T19:48:41.248Z,99.90
2022-10-17T19:51:24.492Z,99.90
2022-10-17T19:53:52.310Z,99.90
2022-10-17T19:56:22.775Z,99.90
2022-10-17T19:58:50.081Z,99.90
2022-10-17T20:01:18.016Z,99.90
2022-10-17T20:04:10.192Z,99.90
2022-10-17T20:06:36.939Z,99.90
2022-10-17T20:09:04.766Z,99.90
2022-10-17T20:11:32.460Z,99.90
2022-10-17T20:14:00.919Z,99.90
2022-10-17T20:16:29.519Z,99.90
2022-10-17T20:18:57.223Z,99.90
2022-10-17T20:21:26.555Z,99.90
2022-10-17T20:23:59.525Z,99.90
2022-10-17T20:26:37.513Z,99.90
2022-10-17T20:29:10.245Z,99.90
2022-10-17T20:31:36.818Z,99.90
2022-10-17T20:34:03.558Z,99.90
2022-10-17T20:48:01.978Z,99.90
2022-10-17T20:50:31.616Z,99.90
2022-10-17T20:53:18.520Z,99.90
2022-10-17T20:55:46.271Z,99.90
2022-10-17T20:58:13.729Z,99.90
2022-10-17T21:00:41.373Z,99.90
2022-10-17T21:03:08.238Z,99.90
2022-10-17T21:05:39.129Z,99.90
2022-10-17T21:08:06.228Z,99.90
2022-10-17T21:10:35.648Z,99.90
2022-10-17T21:13:03.615Z,99.90
2022-10-17T21:15:30.034Z,99.90
2022-10-17T21:17:56.519Z,99.90
2022-10-17T21:20:24.932Z,99.90
2022-10-17T21:22:51.664Z,99.90
2022-10-17T21:25:21.608Z,99.90
2022-10-17T21:27:50.791Z,99.90
2022-10-17T21:30:17.516Z,99.90
2022-10-17T21:32:51.390Z,99.90
2022-10-17T21:35:21.627Z,99.90
2022-10-17T21:37:48.144Z,99.90
2022-10-17T21:40:17.670Z,99.90
2022-10-17T21:43:09.416Z,99.90
2022-10-17T21:45:39.832Z,99.90
2022-10-17T21:48:13.981Z,99.90
2022-10-17T21:50:40.828Z,99.90
2022-10-17T21:53:07.350Z,99.90
2022-10-17T21:55:35.754Z,99.90
2022-10-17T21:58:06.665Z,99.90
2022-10-17T22:00:33.130Z,99.90
2022-10-17T22:03:00.365Z,99.90
2022-10-17T22:05:29.531Z,99.90
2022-10-17T22:07:56.097Z,99.90
2022-10-17T22:10:24.623Z,99.90
2022-10-17T22:16:29.335Z,99.90
2022-10-17T22:19:03.117Z,99.90
2022-10-17T22:21:34.931Z,99.90
2022-10-17T22:24:03.594Z,99.90
2022-10-17T22:26:31.249Z,99.90
2022-10-17T22:28:58.961Z,99.90
2022-10-17T22:31:25.592Z,99.90
2022-10-17T22:33:54.762Z,99.90
2022-10-17T22:36:21.247Z,99.90
2022-10-17T22:38:47.989Z,99.90
2022-10-17T22:41:14.531Z,99.90
2022-10-17T22:43:40.943Z,99.90
2022-10-17T22:46:12.154Z,99.90
2022-10-17T22:48:38.860Z,99.90
2022-10-17T22:51:05.420Z,99.90
2022-10-17T22:53:34.317Z,99.90
2022-10-17T22:56:03.991Z,99.90
2022-10-17T22:58:31.769Z,99.90
2022-10-17T23:01:06.909Z,99.90
2022-10-17T23:03:35.909Z,99.90
2022-10-17T23:06:09.325Z,99.90
2022-10-17T23:14:26.834Z,99.90
2022-10-17T23:16:53.286Z,99.90
2022-10-17T23:19:22.782Z,99.90
2022-10-17T23:21:50.090Z,99.90
2022-10-17T23:24:20.434Z,99.90
2022-10-17T23:26:46.891Z,99.90
2022-10-17T23:29:13.377Z,99.90
2022-10-17T23:31:44.780Z,99.90
2022-10-17T23:34:11.460Z,99.90
2022-10-17T23:36:41.882Z,99.90
2022-10-17T23:39:09.889Z,99.90
2022-10-17T23:41:42.945Z,99.90
2022-10-17T23:44:10.079Z,99.90
2022-10-17T23:46:37.820Z,99.90
2022-10-17T23:49:05.135Z,99.90
2022-10-17T23:51:32.147Z,99.90
2022-10-17T23:53:58.590Z,99.90
2022-10-17T23:56:24.992Z,99.90
2022-10-17T23:58:51.836Z,99.90
